createdAt,value
2023-02-27T00:02:22.541Z,10.60
2023-02-27T00:04:49.708Z,11.17
2023-02-27T00:07:16.938Z,9.27
2023-02-27T00:09:44.481Z,12.87
2023-02-27T00:12:11.690Z,12.80
2023-02-27T00:14:38.613Z,13.27
2023-02-27T00:17:05.554Z,10.00
2023-02-27T00:19:32.465Z,12.37
2023-02-27T00:21:59.769Z,10.80
2023-02-27T00:24:26.545Z,9.07
2023-02-27T00:26:53.794Z,8.67
2023-02-27T00:29:20.456Z,9.30
2023-02-27T00:31:47.212Z,8.33
2023-02-27T00:34:15.006Z,8.27
2023-02-27T00:36:41.682Z,7.87
2023-02-27T00:39:08.824Z,14.33
2023-02-27T00:41:35.526Z,12.13
2023-02-27T00:44:02.882Z,9.73
2023-02-27T00:46:29.832Z,12.40
2023-02-27T00:48:56.658Z,10.50
2023-02-27T00:51:23.695Z,8.03
2023-02-27T00:53:50.677Z,8.07
2023-02-27T00:56:17.316Z,10.40
2023-02-27T00:58:44.297Z,6.37
2023-02-27T01:01:12.044Z,6.57
2023-02-27T01:03:38.850Z,9.73
2023-02-27T01:06:05.777Z,8.73
2023-02-27T01:08:32.406Z,10.97
2023-02-27T01:10:59.172Z,7.43
2023-02-27T01:13:25.903Z,14.57
2023-02-27T01:15:52.680Z,12.97
2023-02-27T01:18:20.029Z,11.13
2023-02-27T01:20:46.682Z,6.87
2023-02-27T01:23:13.342Z,7.23
2023-02-27T01:25:40.154Z,11.77
2023-02-27T01:28:07.110Z,11.40
2023-02-27T01:30:33.782Z,9.73
2023-02-27T01:33:00.462Z,9.33
2023-02-27T01:35:27.802Z,7.20
2023-02-27T01:37:54.490Z,7.30
2023-02-27T01:40:21.419Z,11.30
2023-02-27T01:42:48.051Z,6.60
2023-02-27T01:45:27.821Z,6.73
2023-02-27T01:48:00.237Z,8.80
2023-02-27T01:50:27.727Z,7.77
2023-02-27T01:52:56.889Z,7.47
2023-02-27T01:55:25.600Z,8.00
2023-02-27T01:57:53.388Z,8.83
2023-02-27T02:00:21.218Z,6.20
2023-02-27T02:02:53.805Z,4.83
2023-02-27T02:05:21.865Z,7.10
2023-02-27T02:07:49.392Z,14.57
2023-02-27T02:10:16.411Z,13.03
2023-02-27T02:12:44.731Z,13.67
2023-02-27T02:15:11.542Z,9.50
2023-02-27T02:17:47.370Z,7.03
2023-02-27T02:20:48.259Z,10.43
2023-02-27T02:23:53.799Z,11.63
2023-02-27T02:26:35.013Z,5.67
2023-02-27T02:29:44.463Z,7.30
2023-02-27T02:33:08.252Z,4.37
2023-02-27T02:36:20.398Z,6.73
2023-02-27T02:39:21.474Z,8.30
2023-02-27T02:41:58.152Z,6.07
2023-02-27T02:44:34.306Z,13.13
2023-02-27T02:47:05.751Z,7.60
2023-02-27T02:49:43.150Z,11.77
2023-02-27T02:52:18.772Z,8.70
2023-02-27T02:54:53.244Z,9.87
2023-02-27T02:57:27.203Z,7.77
2023-02-27T02:59:59.627Z,6.20
2023-02-27T03:02:29.881Z,6.97
2023-02-27T03:05:00.285Z,9.47
2023-02-27T03:07:32.658Z,6.97
2023-02-27T03:10:04.786Z,5.90
2023-02-27T03:12:33.540Z,6.37
2023-02-27T03:15:05.929Z,5.00
2023-02-27T03:17:39.962Z,12.77
2023-02-27T03:20:08.767Z,7.47
2023-02-27T03:22:38.362Z,7.33
2023-02-27T03:25:08.881Z,18.53
2023-02-27T03:27:39.217Z,10.47
2023-02-27T03:30:10.621Z,7.97
2023-02-27T03:32:45.177Z,6.27
2023-02-27T03:35:12.411Z,7.63
2023-02-27T03:37:47.825Z,11.13
2023-02-27T03:40:25.898Z,13.37
2023-02-27T03:43:00.255Z,5.23
2023-02-27T03:45:34.614Z,11.37
2023-02-27T03:48:02.162Z,11.13
2023-02-27T03:50:28.962Z,4.93
2023-02-27T03:52:56.621Z,8.87
2023-02-27T03:55:30.047Z,8.97
2023-02-27T03:57:56.880Z,7.00
2023-02-27T04:00:26.207Z,8.70
2023-02-27T04:02:55.803Z,5.47
2023-02-27T04:05:22.928Z,6.63
2023-02-27T04:08:03.474Z,5.73
2023-02-27T04:10:45.179Z,5.80
2023-02-27T04:13:28.374Z,7.27
2023-02-27T04:16:21.727Z,7.17
2023-02-27T04:18:59.115Z,10.60
2023-02-27T04:21:34.119Z,5.93
2023-02-27T04:24:12.530Z,6.50
2023-02-27T04:26:46.132Z,6.77
2023-02-27T04:29:18.900Z,7.23
2023-02-27T04:31:53.205Z,10.30
2023-02-27T04:34:23.644Z,10.47
2023-02-27T04:36:58.083Z,8.60
2023-02-27T04:39:29.694Z,12.10
2023-02-27T04:42:01.156Z,7.77
2023-02-27T04:44:30.138Z,8.17
2023-02-27T04:46:59.355Z,11.90
2023-02-27T04:49:29.036Z,17.17
2023-02-27T04:52:00.297Z,7.20
2023-02-27T04:54:31.728Z,9.60
2023-02-27T04:57:03.848Z,9.67
2023-02-27T04:59:35.983Z,6.87
2023-02-27T05:02:07.553Z,8.90
2023-02-27T05:04:37.835Z,7.30
2023-02-27T05:07:08.978Z,12.70
2023-02-27T05:09:41.696Z,6.53
2023-02-27T05:12:16.194Z,9.80
2023-02-27T05:14:48.561Z,10.37
2023-02-27T05:17:20.914Z,17.57
2023-02-27T05:19:48.040Z,8.63
2023-02-27T05:22:25.942Z,13.43
2023-02-27T05:24:58.605Z,6.80
2023-02-27T05:27:33.370Z,10.43
2023-02-27T05:30:05.223Z,10.27
2023-02-27T05:32:36.897Z,18.23
2023-02-27T05:35:12.983Z,6.33
2023-02-27T05:37:44.509Z,10.50
2023-02-27T05:40:15.987Z,12.80
2023-02-27T05:42:47.626Z,20.30
2023-02-27T05:45:19.720Z,21.80
2023-02-27T05:47:52.494Z,9.50
2023-02-27T05:50:23.995Z,14.63
2023-02-27T05:52:54.425Z,11.67
2023-02-27T05:55:25.041Z,12.60
2023-02-27T05:57:57.422Z,12.83
2023-02-27T06:00:29.450Z,8.40
2023-02-27T06:02:56.206Z,8.57
2023-02-27T06:05:24.966Z,8.57
2023-02-27T06:07:51.627Z,12.80
2023-02-27T06:10:21.300Z,12.20
2023-02-27T06:12:48.215Z,9.57
2023-02-27T06:15:16.726Z,10.10
2023-02-27T06:17:43.346Z,10.93
2023-02-27T06:20:11.363Z,11.33
2023-02-27T06:22:38.036Z,7.33
2023-02-27T06:25:05.344Z,14.13
2023-02-27T06:27:32.369Z,10.70
2023-02-27T06:29:59.088Z,9.83
2023-02-27T06:32:27.301Z,11.57
2023-02-27T06:34:54.376Z,12.27
2023-02-27T06:37:21.253Z,11.87
2023-02-27T06:39:47.919Z,9.67
2023-02-27T06:42:14.850Z,13.20
2023-02-27T06:44:41.533Z,11.53
2023-02-27T06:47:08.249Z,14.07
2023-02-27T06:49:35.736Z,13.80
2023-02-27T06:52:02.406Z,8.47
2023-02-27T06:54:29.090Z,6.43
2023-02-27T06:56:55.881Z,12.53
2023-02-27T06:59:22.978Z,23.10
2023-02-27T07:01:49.656Z,10.53
2023-02-27T07:04:16.774Z,12.93
2023-02-27T07:07:32.300Z,8.33
2023-02-27T07:09:31.164Z,9.37
2023-02-27T07:11:58.112Z,9.80
2023-02-27T07:14:25.012Z,16.43
2023-02-27T07:16:53.573Z,21.10
2023-02-27T07:19:20.216Z,12.33
2023-02-27T07:21:47.572Z,14.07
2023-02-27T07:24:14.218Z,12.83
2023-02-27T07:26:40.872Z,17.37
2023-02-27T07:29:08.197Z,9.63
2023-02-27T07:31:35.490Z,14.47
2023-02-27T07:34:02.323Z,17.17
2023-02-27T07:36:30.362Z,9.83
2023-02-27T07:38:58.018Z,19.63
2023-02-27T07:41:30.700Z,15.37
2023-02-27T07:43:57.973Z,10.87
2023-02-27T07:46:26.716Z,12.73
2023-02-27T07:48:53.709Z,21.20
2023-02-27T07:51:20.384Z,11.27
2023-02-27T07:53:47.235Z,21.17
2023-02-27T07:56:14.699Z,21.30
2023-02-27T07:58:41.495Z,12.50
2023-02-27T08:01:08.282Z,17.07
2023-02-27T08:03:35.198Z,11.97
2023-02-27T08:06:02.417Z,17.30
2023-02-27T08:08:29.412Z,19.40
2023-02-27T08:10:56.112Z,14.60
2023-02-27T08:13:42.386Z,11.23
2023-02-27T08:16:10.498Z,19.10
2023-02-27T08:18:37.258Z,13.00
2023-02-27T08:21:04.609Z,12.87
2023-02-27T08:23:31.756Z,11.37
2023-02-27T08:25:58.569Z,13.63
2023-02-27T08:28:26.960Z,12.20
2023-02-27T08:30:54.322Z,12.10
2023-02-27T08:33:21.451Z,21.00
2023-02-27T08:35:48.131Z,10.87
2023-02-27T08:38:14.845Z,12.50
2023-02-27T08:40:41.617Z,10.10
2023-02-27T08:43:08.363Z,17.90
2023-02-27T08:45:35.873Z,12.67
2023-02-27T08:48:02.687Z,18.50
2023-02-27T08:50:29.442Z,21.17
2023-02-27T08:52:56.156Z,17.90
2023-02-27T08:55:22.868Z,13.53
2023-02-27T08:57:49.820Z,14.07
2023-02-27T09:00:17.355Z,14.27
2023-02-27T09:02:44.722Z,15.07
2023-02-27T09:05:11.660Z,21.73
2023-02-27T09:07:38.285Z,17.67
2023-02-27T09:10:06.547Z,11.87
2023-02-27T09:12:33.237Z,17.60
2023-02-27T09:14:59.899Z,15.80
2023-02-27T09:17:26.558Z,16.57
2023-02-27T09:19:55.402Z,18.87
2023-02-27T09:22:23.773Z,18.90
2023-02-27T09:24:50.414Z,16.53
2023-02-27T09:27:17.102Z,15.13
2023-02-27T09:29:43.787Z,20.10
2023-02-27T09:32:10.639Z,20.20
2023-02-27T09:34:37.407Z,17.40
2023-02-27T09:37:04.697Z,15.57
2023-02-27T09:39:31.521Z,18.60
2023-02-27T09:42:03.360Z,18.90
2023-02-27T09:44:46.270Z,20.43
2023-02-27T09:47:18.062Z,34.57
2023-02-27T09:49:57.592Z,13.17
2023-02-27T09:52:25.766Z,18.57
2023-02-27T09:54:53.717Z,17.10
2023-02-27T09:57:37.364Z,11.83
2023-02-27T10:00:10.700Z,20.53
2023-02-27T10:02:50.298Z,14.10
2023-02-27T10:05:26.076Z,14.37
2023-02-27T10:08:04.348Z,10.50
2023-02-27T10:10:38.562Z,19.80
2023-02-27T10:13:35.948Z,21.47
2023-02-27T10:16:05.510Z,15.37
2023-02-27T10:18:35.641Z,13.47
2023-02-27T10:21:06.524Z,11.00
2023-02-27T10:23:38.760Z,15.23
2023-02-27T10:26:07.310Z,18.00
2023-02-27T10:28:34.010Z,23.47
2023-02-27T10:31:01.871Z,7.47
2023-02-27T10:33:34.659Z,8.37
2023-02-27T10:36:03.402Z,9.47
2023-02-27T10:38:36.763Z,10.00
2023-02-27T10:41:09.649Z,9.53
2023-02-27T10:43:41.503Z,7.30
2023-02-27T10:46:15.007Z,6.80
2023-02-27T10:48:50.743Z,6.20
2023-02-27T10:51:25.505Z,4.40
2023-02-27T10:54:16.440Z,6.30
2023-02-27T10:56:48.298Z,12.13
2023-02-27T10:59:20.918Z,7.70
2023-02-27T11:01:51.314Z,13.33
2023-02-27T11:04:29.448Z,4.47
2023-02-27T11:06:57.443Z,6.10
2023-02-27T11:09:26.766Z,7.07
2023-02-27T11:11:54.414Z,7.87
2023-02-27T11:14:28.043Z,5.00
2023-02-27T11:16:56.137Z,3.40
2023-02-27T11:19:31.398Z,3.03
2023-02-27T11:22:04.133Z,1.97
2023-02-27T11:24:32.266Z,2.60
2023-02-27T11:27:02.908Z,7.63
2023-02-27T11:29:29.746Z,5.23
2023-02-27T11:31:58.379Z,4.13
2023-02-27T11:34:29.820Z,5.03
2023-02-27T11:37:00.272Z,2.27
2023-02-27T11:39:33.012Z,2.80
2023-02-27T11:42:17.453Z,4.73
2023-02-27T11:44:53.312Z,6.03
2023-02-27T11:47:23.937Z,5.67
2023-02-27T11:50:12.214Z,12.67
2023-02-27T11:52:47.418Z,8.03
2023-02-27T11:55:18.907Z,6.53
2023-02-27T11:57:49.897Z,1.67
2023-02-27T12:00:20.709Z,1.83
2023-02-27T12:02:56.105Z,3.33
2023-02-27T12:05:27.458Z,5.57
2023-02-27T12:07:59.713Z,7.33
2023-02-27T12:10:30.433Z,7.83
2023-02-27T12:13:02.256Z,6.37
2023-02-27T12:15:33.801Z,4.73
2023-02-27T12:18:11.005Z,3.53
2023-02-27T12:20:43.838Z,8.47
2023-02-27T12:23:18.997Z,3.37
2023-02-27T12:25:51.959Z,5.13
2023-02-27T12:28:39.377Z,11.37
2023-02-27T12:31:25.299Z,10.20
2023-02-27T12:33:57.275Z,3.83
2023-02-27T12:36:24.178Z,4.87
2023-02-27T12:38:51.446Z,3.20
2023-02-27T12:41:43.614Z,9.90
2023-02-27T12:44:41.041Z,4.27
2023-02-27T12:47:19.503Z,3.27
2023-02-27T12:49:56.231Z,9.33
2023-02-27T12:52:36.570Z,4.30
2023-02-27T12:55:09.862Z,2.07
2023-02-27T12:58:07.542Z,7.10
2023-02-27T13:00:43.681Z,2.20
2023-02-27T13:03:15.656Z,7.40
2023-02-27T13:05:47.587Z,3.00
2023-02-27T13:08:27.358Z,9.57
2023-02-27T13:10:59.318Z,4.53
2023-02-27T13:13:32.272Z,2.27
2023-02-27T13:16:04.336Z,3.83
2023-02-27T13:18:38.624Z,2.70
2023-02-27T13:21:12.190Z,4.60
2023-02-27T13:23:49.216Z,2.10
2023-02-27T13:26:22.547Z,3.70
2023-02-27T13:28:51.171Z,9.03
2023-02-27T13:31:33.913Z,1.43
2023-02-27T13:34:10.979Z,1.30
2023-02-27T13:36:41.089Z,2.23
2023-02-27T13:39:41.425Z,2.93
2023-02-27T13:42:45.381Z,2.40
2023-02-27T13:45:48.952Z,1.83
2023-02-27T13:48:53.115Z,3.53
2023-02-27T13:51:43.576Z,12.03
2023-02-27T13:54:20.009Z,4.20
2023-02-27T13:56:48.130Z,4.83
2023-02-27T13:59:20.634Z,4.33
2023-02-27T14:01:52.695Z,4.67
2023-02-27T14:04:20.821Z,2.53
2023-02-27T14:06:48.459Z,2.43
2023-02-27T14:09:20.403Z,1.60
2023-02-27T14:11:56.199Z,1.37
2023-02-27T14:14:44.292Z,1.97
2023-02-27T14:17:13.605Z,5.30
2023-02-27T14:19:56.029Z,3.47
2023-02-27T14:22:33.649Z,2.67
2023-02-27T14:25:05.765Z,1.77
2023-02-27T14:27:44.215Z,3.90
2023-02-27T14:30:27.749Z,6.43
2023-02-27T14:32:59.412Z,2.73
2023-02-27T14:35:27.400Z,2.87
2023-02-27T14:37:54.271Z,2.57
2023-02-27T14:40:29.969Z,3.93
2023-02-27T14:43:04.757Z,18.90
2023-02-27T14:45:31.693Z,7.93
2023-02-27T14:47:59.197Z,10.50
2023-02-27T14:50:31.550Z,6.57
2023-02-27T14:52:58.425Z,2.40
2023-02-27T14:55:30.660Z,2.70
2023-02-27T14:57:59.703Z,5.47
2023-02-27T15:00:35.003Z,19.63
2023-02-27T15:03:11.040Z,8.67
2023-02-27T15:05:38.628Z,11.70
2023-02-27T15:08:05.414Z,17.63
2023-02-27T15:10:32.585Z,13.03
2023-02-27T15:13:00.478Z,18.20
2023-02-27T15:15:27.543Z,7.23
2023-02-27T15:17:55.504Z,2.77
2023-02-27T15:20:29.237Z,3.53
2023-02-27T15:22:56.459Z,6.80
2023-02-27T15:25:31.364Z,11.37
2023-02-27T15:28:02.371Z,8.40
2023-02-27T15:30:29.521Z,2.70
2023-02-27T15:32:56.678Z,4.30
2023-02-27T15:35:29.928Z,2.23
2023-02-27T15:37:58.752Z,16.20
2023-02-27T15:40:27.409Z,5.73
2023-02-27T15:42:55.295Z,6.23
2023-02-27T15:45:25.255Z,12.73
2023-02-27T15:47:52.015Z,19.10
2023-02-27T15:50:27.940Z,12.57
2023-02-27T15:53:00.218Z,5.87
2023-02-27T15:55:30.412Z,21.83
2023-02-27T15:58:03.176Z,9.03
2023-02-27T16:00:33.175Z,6.43
2023-02-27T16:03:00.204Z,9.73
2023-02-27T16:05:31.903Z,6.90
2023-02-27T16:07:58.702Z,9.33
2023-02-27T16:10:29.187Z,5.27
2023-02-27T16:12:56.737Z,4.03
2023-02-27T16:15:30.600Z,4.13
2023-02-27T16:18:00.602Z,6.93
2023-02-27T16:20:54.044Z,3.30
2023-02-27T16:23:24.011Z,2.40
2023-02-27T16:26:06.261Z,3.77
2023-02-27T16:28:34.761Z,6.60
2023-02-27T16:31:01.893Z,9.13
2023-02-27T16:33:33.534Z,12.33
2023-02-27T16:36:16.713Z,1.63
2023-02-27T16:38:43.513Z,8.33
2023-02-27T16:41:12.206Z,2.30
2023-02-27T16:43:38.926Z,3.17
2023-02-27T16:46:07.514Z,6.87
2023-02-27T16:48:34.488Z,4.30
2023-02-27T16:51:01.520Z,3.77
2023-02-27T16:53:28.791Z,3.40
2023-02-27T16:55:55.499Z,4.33
2023-02-27T16:58:22.192Z,11.10
2023-02-27T17:00:49.542Z,4.83
2023-02-27T17:03:16.248Z,5.27
2023-02-27T17:05:42.968Z,6.03
2023-02-27T17:08:10.100Z,4.03
2023-02-27T17:10:38.276Z,12.13
2023-02-27T17:13:05.447Z,5.87
2023-02-27T17:15:32.087Z,11.20
2023-02-27T17:17:58.804Z,11.10
2023-02-27T17:20:27.261Z,10.83
2023-02-27T17:22:54.047Z,11.03
2023-02-27T17:25:20.769Z,6.67
2023-02-27T17:27:48.903Z,4.97
2023-02-27T17:30:15.884Z,12.13
2023-02-27T17:32:42.564Z,11.77
2023-02-27T17:35:09.692Z,7.43
2023-02-27T17:37:37.156Z,18.33
2023-02-27T17:40:04.409Z,6.20
2023-02-27T17:42:31.200Z,9.53
2023-02-27T17:44:58.496Z,9.47
2023-02-27T17:47:25.168Z,7.00
2023-02-27T17:49:52.503Z,5.60
2023-02-27T17:52:19.605Z,7.20
2023-02-27T17:54:46.239Z,7.87
2023-02-27T17:57:13.028Z,16.07
2023-02-27T17:59:40.296Z,13.40
2023-02-27T18:02:09.415Z,8.07
2023-02-27T18:04:36.082Z,9.03
2023-02-27T18:07:02.963Z,5.40
2023-02-27T18:09:29.722Z,15.30
2023-02-27T18:11:57.212Z,20.83
2023-02-27T18:14:24.498Z,8.53
2023-02-27T18:16:52.158Z,10.83
2023-02-27T18:19:19.534Z,12.47
2023-02-27T18:21:46.682Z,15.97
2023-02-27T18:24:19.947Z,8.73
2023-02-27T18:26:46.728Z,9.80
2023-02-27T18:29:13.739Z,7.53
2023-02-27T18:31:42.809Z,7.23
2023-02-27T18:34:09.867Z,8.30
2023-02-27T18:36:38.018Z,13.83
2023-02-27T18:39:05.935Z,10.83
2023-02-27T18:41:33.229Z,8.27
2023-02-27T18:43:59.974Z,8.60
2023-02-27T18:46:27.832Z,19.70
2023-02-27T18:48:54.848Z,12.73
2023-02-27T18:51:21.593Z,16.23
2023-02-27T18:53:50.330Z,8.57
2023-02-27T18:56:19.765Z,10.20
2023-02-27T18:58:46.791Z,16.07
2023-02-27T19:01:21.833Z,14.47
2023-02-27T19:03:50.349Z,12.43
2023-02-27T19:06:17.381Z,18.80
2023-02-27T19:08:44.710Z,13.17
2023-02-27T19:11:21.602Z,9.00
2023-02-27T19:13:48.309Z,11.23
2023-02-27T19:16:15.287Z,10.23
2023-02-27T19:18:42.000Z,12.53
2023-02-27T19:21:08.902Z,18.13
2023-02-27T19:23:36.031Z,18.97
2023-02-27T19:26:02.744Z,21.00
2023-02-27T19:28:30.044Z,16.87
2023-02-27T19:30:57.663Z,22.97
2023-02-27T19:33:27.353Z,12.13
2023-02-27T19:35:54.297Z,12.40
2023-02-27T19:38:21.152Z,13.80
2023-02-27T19:40:47.924Z,19.97
2023-02-27T19:43:18.286Z,16.97
2023-02-27T19:45:50.262Z,17.70
2023-02-27T19:48:19.072Z,20.27
2023-02-27T19:50:49.586Z,13.17
2023-02-27T19:53:16.708Z,15.77
2023-02-27T19:55:48.421Z,16.03
2023-02-27T20:01:26.064Z,20.93
2023-02-27T20:03:55.319Z,10.77
2023-02-27T20:06:25.212Z,16.50
2023-02-27T20:08:56.124Z,17.47
2023-02-27T20:11:23.805Z,25.60
2023-02-27T20:13:55.447Z,14.77
2023-02-27T20:16:29.049Z,12.20
2023-02-27T20:18:58.056Z,24.13
2023-02-27T20:21:25.921Z,12.67
2023-02-27T20:23:56.383Z,13.73
2023-02-27T20:26:28.411Z,18.13
2023-02-27T20:29:00.115Z,20.50
2023-02-27T20:31:33.281Z,13.57
2023-02-27T20:34:06.717Z,20.17
2023-02-27T20:36:34.566Z,20.13
2023-02-27T20:39:03.854Z,10.80
2023-02-27T20:41:34.034Z,14.43
2023-02-27T20:44:01.225Z,14.37
2023-02-27T20:46:30.241Z,11.30
2023-02-27T20:48:59.454Z,11.60
2023-02-27T20:51:31.353Z,15.43
2023-02-27T20:53:59.495Z,18.47
2023-02-27T20:56:27.641Z,15.87
2023-02-27T20:58:54.437Z,13.97
2023-02-27T21:01:21.480Z,17.10
2023-02-27T21:03:49.976Z,18.50
2023-02-27T21:06:17.764Z,19.30
2023-02-27T21:08:46.352Z,28.43
2023-02-27T21:11:14.911Z,26.20
2023-02-27T21:13:41.724Z,23.77
2023-02-27T21:16:10.289Z,14.17
2023-02-27T21:18:37.504Z,13.13
2023-02-27T21:21:06.613Z,18.97
2023-02-27T21:23:34.005Z,19.47
2023-02-27T21:26:00.956Z,17.83
2023-02-27T21:28:27.614Z,20.90
2023-02-27T21:30:54.332Z,22.43
2023-02-27T21:33:22.253Z,35.40
2023-02-27T21:35:49.064Z,19.13
2023-02-27T21:38:16.410Z,19.03
2023-02-27T21:40:43.351Z,12.83
2023-02-27T21:43:10.059Z,14.93
2023-02-27T21:45:40.784Z,17.43
2023-02-27T21:48:07.825Z,14.20
2023-02-27T21:50:35.275Z,25.07
2023-02-27T21:53:01.933Z,17.20
2023-02-27T21:55:29.465Z,16.80
2023-02-27T21:57:56.242Z,14.10
2023-02-27T22:00:25.861Z,17.73
2023-02-27T22:02:52.800Z,13.00
2023-02-27T22:05:19.486Z,16.43
2023-02-27T22:07:46.205Z,9.83
2023-02-27T22:10:12.915Z,9.97
2023-02-27T22:12:40.259Z,16.83
2023-02-27T22:15:08.114Z,18.23
2023-02-27T22:17:34.900Z,15.23
2023-02-27T22:20:01.585Z,18.33
2023-02-27T22:22:28.895Z,11.03
2023-02-27T22:24:55.590Z,27.83
2023-02-27T22:27:22.270Z,22.73
2023-02-27T22:29:49.571Z,14.67
2023-02-27T22:32:16.213Z,10.57
2023-02-27T22:34:42.845Z,12.20
2023-02-27T22:37:09.512Z,15.00
2023-02-27T22:39:36.251Z,14.80
2023-02-27T22:42:03.035Z,13.27
2023-02-27T22:44:29.762Z,16.77
2023-02-27T22:46:57.205Z,18.77
2023-02-27T22:49:24.144Z,13.50
2023-02-27T22:51:52.106Z,14.70
2023-02-27T22:54:20.356Z,9.83
2023-02-27T22:56:49.588Z,10.33
2023-02-27T22:59:16.264Z,11.77
2023-02-27T23:01:42.963Z,8.37
2023-02-27T23:04:11.433Z,9.87
2023-02-27T23:06:39.613Z,12.77
2023-02-27T23:09:08.526Z,15.63
2023-02-27T23:11:35.735Z,8.03
2023-02-27T23:14:02.472Z,10.90
2023-02-27T23:16:29.451Z,10.67
2023-02-27T23:18:58.137Z,7.90
2023-02-27T23:21:31.489Z,8.90
2023-02-27T23:23:58.333Z,9.47
2023-02-27T23:26:27.691Z,13.50
2023-02-27T23:28:54.912Z,7.00
2023-02-27T23:31:21.854Z,11.23
2023-02-27T23:33:48.656Z,14.17
2023-02-27T23:36:15.305Z,14.53
2023-02-27T23:38:45.701Z,13.10
2023-02-27T23:41:15.993Z,9.37
2023-02-27T23:44:01.227Z,14.30
2023-02-27T23:46:29.586Z,9.67
2023-02-27T23:48:57.027Z,11.57
2023-02-27T23:51:23.744Z,13.53
2023-02-27T23:53:51.874Z,13.77
2023-02-27T23:56:21.755Z,9.87
2023-02-27T23:58:52.240Z,18.57
